Waterville, ME

9:46 AM EDT on March 29, 2017 (GMT -0400)
Eustis Parkway | | Change Station

Elev 108 ft 44.56 °N, 69.64 °W | Updated 19 seconds ago

Overcast
Overcast
39.5 °F
Feels Like 40 °F
N
1.0
Wind Variable Wind from North

Today
High -- | Low -- °F
--% Chance of Precip.
Yesterday
High -- | Low -- °F
Precip. -- in
Pressure 30.09 in
Visibility 10.0 miles
Clouds Mostly Cloudy 700 ft
Overcast 4500 ft
Windchill 40 °F
Dew Point 35 °F
Humidity 85%
Rainfall Not available.
Snow Depth Not available.
6:24 AM 7:02 PM
Waxing Crescent, 3% visible
METAR KWVL 291256Z AUTO 02007KT 10SM BKN007 OVC045 02/02 A2997 RMK AO2 SLP189 T00220017 FZRANO
Pressure 30.09 in
Visibility 10.0 miles
Clouds Mostly Cloudy 700 ft
Overcast 4500 ft
Windchill 40 °F
Dew Point 35 °F
Humidity 85%
Rainfall Not available.
Snow Depth Not available.
6:24 AM 7:02 PM
Waxing Crescent, 3% visible
METAR KWVL 291256Z AUTO 02007KT 10SM BKN007 OVC045 02/02 A2997 RMK AO2 SLP189 T00220017 FZRANO

Get Severe Weather Alerts

Thanks for signing up!

Be on the lookout for a verification email in your inbox.

You'll start receiving the daily forecast at 8 AM.

×

10-Day Weather Forecast

Almanac

Astronomy

Mar. 29, 2017 Rise Set
Actual Time
Civil Twilight
Nautical Twilight
Astronomical Twilight
Moon
Length of Visible Light
Length of Day
Tomorrow will be .
, % of the Moon is Illuminated

Today's Extremes

State Highs State Lows

Community

WunderPhotos

Upload Photos

1,962,540 photos uploaded!

WunderBlog® & News

Nearby

Air Quality

  Air Quality AQ Index Pollutant
Not available.

Snow Depth

Station Depth Elevation

Earthquake Activity

City Distance Mag. Time & Date
Minimum magnitude displayed is 2.5.

Earthquake Activity

City Distance Mag. Time & Date
Minimum magnitude displayed is 2.5.

Coastal Water Temperatures

Place Temperature

Stations

Nearby Weather Stations

Station Location Temp. Windchill Dew Point Humidity Wind Precip. Elev Updated Type
                   

Watches & Warnings

There are currently no watches in effect.